KPWM/PWM METAR and TAF weather

Enter ICAO airport designator
Station Type Date Time Source
KPWM METAR 2021/09/27 06:51 UTC NOAA

KPWM 270651Z AUTO 25006KT 10SM CLR 12/08 A2986 RMK AO2 SLP110 T01220083


Station Type Date Time Source
KPWM Decoded METAR 2021/09/27 06:51 UTC NOAA

PORTLAND INTERNATIONAL JETPORT, ME, United States (KPWM) 43-39N 70-18W 15M
Sep 27, 2021 - 02:51 AM EDT / 2021.09.27 0651 UTC
Wind: from the WSW (250 degrees) at 7 MPH (6 KT):0
Visibility: 10 mile(s):0
Sky conditions: clear
Temperature: 54.0 F (12.2 C)
Dew Point: 46.9 F (8.3 C)
Relative Humidity: 77%
Pressure (altimeter): 29.86 in. Hg (1011 hPa)
ob: KPWM 270651Z AUTO 25006KT 10SM CLR 12/08 A2986 RMK AO2 SLP110 T01220083
cycle: 7

Station Type Date Time Source
KPWM TAF 2021/09/27 06:46 UTC NOAA

TAF KPWM 270543Z 2706/2806 VRB04KT P6SM FEW250
FM271400 22008G15KT P6SM OVC100
FM280000 20006KT P6SM BKN060

Example: see airport list